createdAt,value
2022-12-18T00:01:26.174Z,52.58
2022-12-18T00:03:57.692Z,51.28
2022-12-18T00:06:26.577Z,51.45
2022-12-18T00:08:54.475Z,49.47
2022-12-18T00:11:23.269Z,56.13
2022-12-18T00:13:50.633Z,49.17
2022-12-18T00:16:21.386Z,54.55
2022-12-18T00:18:51.984Z,54.20
2022-12-18T00:21:20.582Z,60.40
2022-12-18T00:23:48.546Z,55.25
2022-12-18T00:26:17.372Z,51.70
2022-12-18T00:28:45.127Z,59.10
2022-12-18T00:31:13.437Z,52.88
2022-12-18T00:33:41.668Z,60.85
2022-12-18T00:36:12.257Z,55.15
2022-12-18T00:38:40.061Z,54.30
2022-12-18T00:41:08.505Z,53.58
2022-12-18T00:43:36.437Z,43.28
2022-12-18T00:46:06.391Z,49.20
2022-12-18T00:48:33.609Z,48.42
2022-12-18T00:51:01.351Z,53.28
2022-12-18T00:53:30.385Z,50.13
2022-12-18T00:55:57.463Z,48.47
2022-12-18T00:58:24.633Z,49.80
2022-12-18T01:00:52.136Z,49.78
2022-12-18T01:03:19.368Z,43.85
2022-12-18T01:05:46.586Z,51.90
2022-12-18T01:08:13.608Z,44.38
2022-12-18T01:10:44.065Z,49.22
2022-12-18T01:13:12.517Z,47.30
2022-12-18T01:15:39.526Z,44.05
2022-12-18T01:18:07.018Z,46.15
2022-12-18T01:20:34.474Z,49.47
2022-12-18T01:23:01.538Z,52.80
2022-12-18T01:25:29.129Z,47.17
2022-12-18T01:27:56.457Z,45.75
2022-12-18T01:30:23.704Z,45.15
2022-12-18T01:32:54.138Z,47.20
2022-12-18T01:35:21.423Z,40.00
2022-12-18T01:37:56.247Z,41.83
2022-12-18T01:40:23.880Z,49.15
2022-12-18T01:42:54.624Z,43.78
2022-12-18T01:45:22.186Z,44.30
2022-12-18T01:47:51.267Z,45.30
2022-12-18T01:50:24.644Z,52.42
2022-12-18T01:52:53.168Z,43.50
2022-12-18T01:55:22.278Z,50.58
2022-12-18T01:57:50.043Z,41.67
2022-12-18T02:00:21.432Z,46.78
2022-12-18T02:02:49.885Z,47.33
2022-12-18T02:05:19.037Z,47.08
2022-12-18T02:08:08.839Z,48.42
2022-12-18T02:10:54.116Z,46.28
2022-12-18T02:13:27.353Z,41.88
2022-12-18T02:15:57.602Z,45.20
2022-12-18T02:18:27.154Z,42.83
2022-12-18T02:21:13.186Z,37.00
2022-12-18T02:23:49.400Z,43.70
2022-12-18T02:26:22.871Z,42.08
2022-12-18T02:31:24.081Z,43.17
2022-12-18T02:33:55.325Z,36.50
2022-12-18T02:36:23.144Z,51.22
2022-12-18T02:38:51.346Z,44.80
2022-12-18T02:41:20.091Z,47.40
2022-12-18T02:43:58.223Z,43.60
2022-12-18T02:46:27.863Z,36.50
2022-12-18T02:48:57.165Z,41.72
2022-12-18T02:51:27.272Z,38.88
2022-12-18T02:53:57.882Z,48.30
2022-12-18T02:56:31.204Z,43.60
2022-12-18T02:59:06.502Z,35.65
2022-12-18T03:01:36.387Z,40.28
2022-12-18T03:04:06.168Z,43.22
2022-12-18T03:06:41.424Z,37.60
2022-12-18T03:09:14.159Z,44.70
2022-12-18T03:12:02.049Z,44.58
2022-12-18T03:14:31.053Z,39.92
2022-12-18T03:17:02.082Z,37.90
2022-12-18T03:19:31.192Z,37.30
2022-12-18T03:21:59.505Z,47.28
2022-12-18T03:24:28.503Z,40.92
2022-12-18T03:26:58.174Z,35.05
2022-12-18T03:29:32.609Z,38.42
2022-12-18T03:32:07.820Z,41.28
2022-12-18T03:34:36.928Z,37.88
2022-12-18T03:37:07.954Z,34.17
2022-12-18T03:39:36.487Z,39.75
2022-12-18T03:42:09.259Z,34.40
2022-12-18T03:44:36.430Z,43.60
2022-12-18T03:47:15.233Z,39.22
2022-12-18T03:49:51.903Z,38.88
2022-12-18T03:52:28.247Z,35.15
2022-12-18T03:54:57.280Z,32.22
2022-12-18T03:57:26.517Z,33.00
2022-12-18T03:59:58.038Z,37.72
2022-12-18T04:02:26.275Z,34.95
2022-12-18T04:04:55.186Z,36.97
2022-12-18T04:07:23.737Z,34.47
2022-12-18T04:09:52.166Z,32.20
2022-12-18T04:12:19.322Z,33.78
2022-12-18T04:14:46.444Z,35.40
2022-12-18T04:17:13.498Z,32.33
2022-12-18T04:19:40.761Z,35.08
2022-12-18T04:22:08.302Z,34.05
2022-12-18T04:24:35.996Z,27.55
2022-12-18T04:27:03.299Z,34.92
2022-12-18T04:29:30.339Z,36.22
2022-12-18T04:31:57.527Z,35.95
2022-12-18T04:34:25.109Z,31.27
2022-12-18T04:36:52.335Z,32.95
2022-12-18T04:39:20.138Z,27.50
2022-12-18T04:41:47.334Z,33.28
2022-12-18T04:44:15.845Z,33.63
2022-12-18T04:46:44.073Z,32.70
2022-12-18T04:49:11.959Z,31.98
2022-12-18T04:51:39.253Z,33.30
2022-12-18T04:54:06.666Z,28.83
2022-12-18T04:56:36.509Z,28.15
2022-12-18T04:59:04.015Z,32.58
2022-12-18T05:01:34.798Z,26.20
2022-12-18T05:04:03.330Z,24.38
2022-12-18T05:06:30.688Z,26.70
2022-12-18T05:08:58.236Z,29.42
2022-12-18T05:11:25.400Z,31.50
2022-12-18T05:13:53.123Z,28.70
2022-12-18T05:16:20.653Z,33.40
2022-12-18T05:18:48.006Z,30.88
2022-12-18T05:21:15.245Z,34.22
2022-12-18T05:23:42.904Z,28.38
2022-12-18T05:26:11.772Z,24.42
2022-12-18T05:28:39.301Z,24.65
2022-12-18T05:31:07.275Z,25.90
2022-12-18T05:33:35.877Z,24.58
2022-12-18T05:36:05.753Z,31.98
2022-12-18T05:38:33.728Z,24.17
2022-12-18T05:41:00.981Z,31.38
2022-12-18T05:43:31.531Z,24.90
2022-12-18T05:45:59.481Z,27.15
2022-12-18T05:48:26.780Z,24.25
2022-12-18T05:50:54.117Z,23.48
2022-12-18T05:53:21.970Z,21.73
2022-12-18T05:55:49.888Z,22.10
2022-12-18T05:58:17.382Z,21.85
2022-12-18T06:00:46.067Z,22.30
2022-12-18T06:03:14.351Z,28.75
2022-12-18T06:05:43.235Z,18.90
2022-12-18T06:08:10.734Z,20.33
2022-12-18T06:10:39.050Z,19.73
2022-12-18T06:13:09.330Z,23.65
2022-12-18T06:15:39.206Z,19.67
2022-12-18T06:18:06.753Z,21.58
2022-12-18T06:20:35.796Z,21.88
2022-12-18T06:23:03.420Z,22.20
2022-12-18T06:25:31.395Z,21.38
2022-12-18T06:27:58.678Z,20.00
2022-12-18T06:30:26.418Z,22.80
2022-12-18T06:32:56.761Z,19.73
2022-12-18T06:35:25.052Z,22.83
2022-12-18T06:37:55.249Z,18.50
2022-12-18T06:40:23.063Z,20.95
2022-12-18T06:42:51.474Z,21.58
2022-12-18T06:45:19.046Z,24.80
2022-12-18T06:47:46.134Z,18.40
2022-12-18T06:50:14.078Z,19.58
2022-12-18T06:52:41.900Z,16.88
2022-12-18T06:55:09.325Z,21.95
2022-12-18T06:57:39.840Z,21.25
2022-12-18T07:00:08.512Z,20.90
2022-12-18T07:02:36.063Z,19.08
2022-12-18T07:05:08.957Z,21.38
2022-12-18T07:07:37.963Z,19.45
2022-12-18T07:10:08.649Z,25.48
2022-12-18T07:12:35.770Z,22.38
2022-12-18T07:15:03.143Z,29.50
2022-12-18T07:17:30.896Z,20.20
2022-12-18T07:19:58.096Z,18.65
2022-12-18T07:22:27.292Z,19.65
2022-12-18T07:24:54.835Z,22.27
2022-12-18T07:27:22.214Z,23.67
2022-12-18T07:29:49.560Z,19.80
2022-12-18T07:32:16.618Z,19.75
2022-12-18T07:34:43.971Z,19.75
2022-12-18T07:37:13.866Z,23.58
2022-12-18T07:39:41.846Z,16.77
2022-12-18T07:42:28.761Z,26.73
2022-12-18T07:44:56.120Z,20.30
2022-12-18T07:47:23.707Z,17.67
2022-12-18T07:49:50.863Z,18.95
2022-12-18T07:52:21.452Z,19.90
2022-12-18T07:54:52.893Z,19.92
2022-12-18T07:57:41.839Z,24.17
2022-12-18T08:00:10.432Z,20.15
2022-12-18T08:02:38.187Z,16.48
2022-12-18T08:05:06.131Z,21.33
2022-12-18T08:07:36.793Z,19.02
2022-12-18T08:10:03.969Z,22.17
2022-12-18T08:12:31.935Z,18.13
2022-12-18T08:14:59.413Z,21.73
2022-12-18T08:17:26.953Z,23.58
2022-12-18T08:19:54.738Z,20.85
2022-12-18T08:22:22.236Z,18.55
2022-12-18T08:24:49.294Z,19.50
2022-12-18T08:27:31.725Z,21.92
2022-12-18T08:30:00.144Z,19.52
2022-12-18T08:32:28.705Z,17.38
2022-12-18T08:34:55.951Z,18.65
2022-12-18T08:37:23.051Z,20.63
2022-12-18T08:39:50.065Z,19.15
2022-12-18T08:42:36.586Z,24.42
2022-12-18T08:45:06.055Z,20.48
2022-12-18T08:47:33.624Z,20.20
2022-12-18T08:50:00.716Z,18.15
2022-12-18T08:52:29.966Z,24.58
2022-12-18T08:54:57.058Z,20.50
2022-12-18T08:57:24.984Z,19.63
2022-12-18T08:59:53.079Z,19.52
2022-12-18T09:02:23.283Z,18.70
2022-12-18T09:04:56.908Z,17.23
2022-12-18T09:07:24.852Z,18.08
2022-12-18T09:09:52.711Z,18.27
2022-12-18T09:12:20.461Z,16.45
2022-12-18T09:14:47.836Z,20.88
2022-12-18T09:17:15.735Z,19.70
2022-12-18T09:19:43.434Z,18.08
2022-12-18T09:22:11.283Z,19.20
2022-12-18T09:24:38.384Z,16.92
2022-12-18T09:27:05.637Z,20.75
2022-12-18T09:29:36.881Z,18.25
2022-12-18T09:32:05.321Z,17.27
2022-12-18T09:34:32.823Z,20.23
2022-12-18T09:37:00.174Z,22.98
2022-12-18T09:39:27.629Z,24.13
2022-12-18T09:42:01.535Z,18.83
2022-12-18T09:44:41.423Z,16.70
2022-12-18T09:47:15.611Z,20.42
2022-12-18T09:49:44.894Z,19.80
2022-12-18T09:52:19.936Z,20.15
2022-12-18T09:54:52.617Z,16.17
2022-12-18T09:57:25.682Z,29.00
2022-12-18T10:00:02.901Z,16.02
2022-12-18T10:02:33.482Z,16.38
2022-12-18T10:05:00.758Z,15.45
2022-12-18T10:07:41.953Z,18.25
2022-12-18T10:10:14.841Z,17.52
2022-12-18T10:12:51.628Z,16.90
2022-12-18T10:15:26.347Z,16.05
2022-12-18T10:17:56.423Z,17.65
2022-12-18T10:20:31.512Z,14.30
2022-12-18T10:23:07.998Z,16.27
2022-12-18T10:25:53.710Z,17.60
2022-12-18T10:28:21.813Z,14.27
2022-12-18T10:30:49.204Z,16.30
2022-12-18T10:33:17.819Z,18.17
2022-12-18T10:35:45.708Z,17.05
2022-12-18T10:38:18.796Z,15.63
2022-12-18T10:40:53.524Z,17.85
2022-12-18T10:43:24.076Z,15.00
2022-12-18T10:46:06.862Z,13.45
2022-12-18T10:48:35.792Z,16.40
2022-12-18T10:51:12.406Z,17.08
2022-12-18T10:53:41.573Z,15.38
2022-12-18T10:56:08.743Z,18.00
2022-12-18T10:58:40.517Z,13.95
2022-12-18T11:01:08.901Z,15.65
2022-12-18T11:03:39.137Z,12.75
2022-12-18T11:06:08.342Z,16.10
2022-12-18T11:08:39.671Z,16.92
2022-12-18T11:11:16.185Z,16.48
2022-12-18T11:13:50.531Z,16.35
2022-12-18T11:16:21.969Z,13.90
2022-12-18T11:18:49.619Z,15.07
2022-12-18T11:21:17.298Z,13.40
2022-12-18T11:23:52.532Z,15.73
2022-12-18T11:26:20.307Z,16.77
2022-12-18T11:29:10.509Z,16.23
2022-12-18T11:31:38.333Z,14.13
2022-12-18T11:34:31.256Z,13.32
2022-12-18T11:37:00.895Z,16.73
2022-12-18T11:39:28.163Z,16.65
2022-12-18T11:42:10.441Z,14.93
2022-12-18T11:44:43.478Z,13.98
2022-12-18T11:47:18.311Z,13.80
2022-12-18T11:49:48.644Z,17.70
2022-12-18T11:52:15.984Z,14.32
2022-12-18T11:54:43.228Z,15.00
2022-12-18T11:57:28.715Z,14.30
2022-12-18T11:59:56.446Z,13.63
2022-12-18T12:02:29.649Z,15.80
2022-12-18T12:05:12.922Z,17.58
2022-12-18T12:07:40.547Z,12.87
2022-12-18T12:10:16.738Z,12.25
2022-12-18T12:12:52.779Z,16.67
2022-12-18T12:15:38.979Z,15.63
2022-12-18T12:18:27.090Z,15.98
2022-12-18T12:21:07.038Z,15.95
2022-12-18T12:23:57.590Z,14.60
2022-12-18T12:26:35.463Z,14.55
2022-12-18T12:29:09.212Z,15.80
2022-12-18T12:31:47.047Z,16.98
2022-12-18T12:34:33.179Z,11.55
2022-12-18T12:37:05.806Z,14.15
2022-12-18T12:39:37.034Z,14.18
2022-12-18T12:42:27.056Z,14.52
2022-12-18T12:44:57.093Z,17.15
2022-12-18T12:47:30.368Z,16.45
2022-12-18T12:50:00.195Z,16.38
2022-12-18T12:52:32.913Z,17.23
2022-12-18T12:55:01.373Z,15.63
2022-12-18T12:57:48.802Z,15.60
2022-12-18T13:00:25.437Z,17.35
2022-12-18T13:02:59.088Z,16.15
2022-12-18T13:05:40.773Z,14.13
2022-12-18T13:08:09.619Z,15.07
2022-12-18T13:10:38.154Z,15.07
2022-12-18T13:13:08.980Z,18.67
2022-12-18T13:15:39.740Z,14.05
2022-12-18T13:18:10.380Z,17.33
2022-12-18T13:20:39.425Z,13.15
2022-12-18T13:23:21.772Z,15.82
2022-12-18T13:25:49.775Z,18.77
2022-12-18T13:28:23.301Z,16.25
2022-12-18T13:33:19.046Z,15.68
2022-12-18T13:35:50.444Z,13.68
2022-12-18T13:38:25.421Z,14.02
2022-12-18T13:40:55.405Z,21.13
2022-12-18T13:43:22.920Z,16.38
2022-12-18T13:45:56.408Z,15.38
2022-12-18T13:48:25.494Z,17.20
2022-12-18T13:50:54.809Z,14.73
2022-12-18T13:53:24.442Z,17.35
2022-12-18T13:55:53.096Z,16.42
2022-12-18T13:58:20.651Z,16.33
2022-12-18T14:00:51.647Z,18.60
2022-12-18T14:03:27.488Z,20.77
2022-12-18T14:05:56.580Z,13.93
2022-12-18T14:08:28.086Z,15.77
2022-12-18T14:10:55.419Z,17.83
2022-12-18T14:13:29.787Z,17.20
2022-12-18T14:15:57.785Z,16.92
2022-12-18T14:18:32.664Z,21.98
2022-12-18T14:21:01.349Z,14.80
2022-12-18T14:23:34.482Z,20.85
2022-12-18T14:26:06.051Z,16.23
2022-12-18T14:28:34.086Z,18.52
2022-12-18T14:31:01.560Z,17.65
2022-12-18T14:33:30.078Z,17.02
2022-12-18T14:36:02.376Z,15.75
2022-12-18T14:38:34.652Z,17.02
2022-12-18T14:41:10.646Z,17.30
2022-12-18T14:43:39.583Z,18.10
2022-12-18T14:46:07.766Z,18.38
2022-12-18T14:48:37.787Z,20.63
2022-12-18T14:51:07.083Z,15.13
2022-12-18T14:53:36.840Z,14.32
2022-12-18T14:56:08.454Z,16.58
2022-12-18T14:58:35.827Z,16.92
2022-12-18T15:01:03.027Z,19.30
2022-12-18T15:03:30.687Z,18.73
2022-12-18T15:05:57.998Z,16.02
2022-12-18T15:08:36.395Z,18.75
2022-12-18T15:11:10.302Z,16.02
2022-12-18T15:13:41.060Z,15.88
2022-12-18T15:16:13.828Z,15.13
2022-12-18T15:18:43.934Z,18.30
2022-12-18T15:21:12.543Z,16.27
2022-12-18T15:23:47.367Z,17.45
2022-12-18T15:26:16.252Z,18.52
2022-12-18T15:28:43.499Z,22.98
2022-12-18T15:31:12.481Z,14.93
2022-12-18T15:33:53.389Z,17.40
2022-12-18T15:36:26.676Z,15.95
2022-12-18T15:38:56.164Z,26.60
2022-12-18T15:41:36.066Z,15.52
2022-12-18T15:44:04.413Z,18.88
2022-12-18T15:46:32.393Z,20.13
2022-12-18T15:49:02.473Z,18.45
2022-12-18T15:51:37.378Z,19.77
2022-12-18T15:54:06.517Z,16.25
2022-12-18T15:56:53.317Z,19.23
2022-12-18T15:59:21.849Z,15.45
2022-12-18T16:01:51.568Z,16.67
2022-12-18T16:04:21.669Z,20.20
2022-12-18T16:09:36.914Z,17.17
2022-12-18T16:12:04.846Z,22.85
2022-12-18T16:14:32.609Z,18.17
2022-12-18T16:17:01.553Z,19.83
2022-12-18T16:19:29.834Z,21.52
2022-12-18T16:21:58.672Z,18.52
2022-12-18T16:24:27.398Z,19.52
2022-12-18T16:26:55.418Z,24.27
2022-12-18T16:29:28.599Z,21.33
2022-12-18T16:31:56.815Z,18.20
2022-12-18T16:34:34.897Z,20.27
2022-12-18T16:37:05.798Z,20.00
2022-12-18T16:39:38.159Z,23.52
2022-12-18T16:42:07.053Z,19.27
2022-12-18T16:44:38.352Z,19.77
2022-12-18T16:47:08.350Z,21.52
2022-12-18T16:49:37.646Z,20.73
2022-12-18T16:52:08.384Z,21.60
2022-12-18T16:54:38.900Z,20.80
2022-12-18T16:57:16.083Z,25.77
2022-12-18T16:59:43.926Z,21.05
2022-12-18T17:02:16.440Z,23.48
2022-12-18T17:04:47.354Z,21.40
2022-12-18T17:07:15.318Z,20.70
2022-12-18T17:09:42.986Z,24.30
2022-12-18T17:12:11.217Z,22.08
2022-12-18T17:14:39.068Z,21.58
2022-12-18T17:17:24.651Z,19.75
2022-12-18T17:19:52.901Z,24.35
2022-12-18T17:22:21.194Z,23.58
2022-12-18T17:24:50.471Z,20.95
2022-12-18T17:27:17.690Z,26.70
2022-12-18T17:29:47.779Z,22.55
2022-12-18T17:32:16.567Z,28.83
2022-12-18T17:34:44.188Z,27.90
2022-12-18T17:37:12.095Z,26.58
2022-12-18T17:39:39.635Z,22.80
2022-12-18T17:42:08.320Z,26.02
2022-12-18T17:44:42.172Z,26.08
2022-12-18T17:47:14.042Z,21.17
2022-12-18T17:49:41.342Z,23.33
2022-12-18T17:52:08.821Z,24.80
2022-12-18T17:54:39.446Z,20.48
2022-12-18T17:57:06.666Z,22.63
2022-12-18T17:59:36.081Z,23.40
2022-12-18T18:02:03.471Z,21.13
2022-12-18T18:04:31.185Z,20.48
2022-12-18T18:06:58.307Z,21.63
2022-12-18T18:09:28.566Z,21.95
2022-12-18T18:12:14.256Z,25.08
2022-12-18T18:14:47.194Z,27.85
2022-12-18T18:17:15.575Z,28.33
2022-12-18T18:19:44.168Z,22.23
2022-12-18T18:22:19.196Z,23.08
2022-12-18T18:24:47.853Z,21.25
2022-12-18T18:27:15.504Z,25.33
2022-12-18T18:29:48.952Z,23.58
2022-12-18T18:32:16.634Z,22.52
2022-12-18T18:34:43.988Z,27.92
2022-12-18T18:37:12.860Z,25.02
2022-12-18T18:39:40.570Z,23.23
2022-12-18T18:42:10.879Z,25.27
2022-12-18T18:44:38.406Z,28.38
2022-12-18T18:47:06.921Z,20.30
2022-12-18T18:49:36.668Z,28.23
2022-12-18T18:52:04.319Z,24.98
2022-12-18T18:54:31.778Z,22.05
2022-12-18T18:57:21.060Z,19.48
2022-12-18T18:59:49.562Z,24.25
2022-12-18T19:02:17.649Z,26.38
2022-12-18T19:04:46.056Z,24.05
2022-12-18T19:07:15.041Z,27.48
2022-12-18T19:09:57.865Z,25.60
2022-12-18T19:12:50.609Z,24.52
2022-12-18T19:15:18.392Z,26.98
2022-12-18T19:17:47.381Z,31.00
2022-12-18T19:20:15.496Z,25.60
2022-12-18T19:22:55.189Z,25.38
2022-12-18T19:25:34.468Z,25.80
2022-12-18T19:28:10.020Z,23.25
2022-12-18T19:30:43.666Z,22.90
2022-12-18T19:33:41.901Z,20.10
2022-12-18T19:35:58.385Z,25.55
2022-12-18T19:38:25.790Z,23.30
2022-12-18T19:40:53.243Z,24.20
2022-12-18T19:43:20.633Z,25.85
2022-12-18T19:45:48.425Z,23.38
2022-12-18T19:48:16.128Z,22.85
2022-12-18T19:50:43.297Z,24.73
2022-12-18T19:53:10.443Z,22.90
2022-12-18T19:55:42.523Z,25.27
2022-12-18T19:58:11.584Z,25.25
2022-12-18T20:00:38.837Z,27.80
2022-12-18T20:03:21.340Z,30.20
2022-12-18T20:05:52.827Z,24.27
2022-12-18T20:08:20.584Z,29.40
2022-12-18T20:10:49.278Z,27.13
2022-12-18T20:13:17.663Z,25.98
2022-12-18T20:15:45.659Z,26.40
2022-12-18T20:18:13.259Z,27.65
2022-12-18T20:20:42.356Z,29.88
2022-12-18T20:23:10.288Z,25.83
2022-12-18T20:25:41.197Z,30.90
2022-12-18T20:28:08.468Z,30.63
2022-12-18T20:30:35.699Z,28.17
2022-12-18T20:33:02.916Z,26.00
2022-12-18T20:35:31.616Z,31.20
2022-12-18T20:38:00.160Z,29.55
2022-12-18T20:40:28.682Z,27.92
2022-12-18T20:42:56.243Z,26.15
2022-12-18T20:45:23.679Z,27.95
2022-12-18T20:47:50.976Z,29.50
2022-12-18T20:50:18.448Z,30.45
2022-12-18T20:52:45.539Z,28.00
2022-12-18T20:55:12.558Z,31.60
2022-12-18T20:57:39.946Z,27.60
2022-12-18T21:00:11.387Z,30.23
2022-12-18T21:02:39.697Z,26.73
2022-12-18T21:05:07.301Z,33.20
2022-12-18T21:07:34.363Z,29.20
2022-12-18T21:10:04.228Z,28.80
2022-12-18T21:12:34.868Z,34.40
2022-12-18T21:15:03.229Z,27.52
2022-12-18T21:17:30.900Z,32.40
2022-12-18T21:20:02.359Z,30.73
2022-12-18T21:22:30.118Z,28.60
2022-12-18T21:24:57.372Z,31.33
2022-12-18T21:27:25.151Z,33.65
2022-12-18T21:29:52.747Z,32.65
2022-12-18T21:32:20.663Z,31.10
2022-12-18T21:34:48.540Z,31.20
2022-12-18T21:37:16.293Z,32.78
2022-12-18T21:39:43.368Z,28.92
2022-12-18T21:42:31.262Z,34.53
2022-12-18T21:44:59.155Z,36.25
2022-12-18T21:47:26.310Z,32.00
2022-12-18T21:49:53.611Z,32.17
2022-12-18T21:52:31.630Z,39.53
2022-12-18T21:55:07.955Z,32.08
2022-12-18T21:57:36.076Z,35.63
2022-12-18T22:00:04.226Z,34.75
2022-12-18T22:02:32.440Z,39.80
2022-12-18T22:05:00.667Z,34.90
2022-12-18T22:07:29.511Z,35.15
2022-12-18T22:09:56.539Z,33.90
2022-12-18T22:12:44.504Z,34.45
2022-12-18T22:15:17.002Z,31.95
2022-12-18T22:17:49.451Z,37.17
2022-12-18T22:20:16.563Z,38.13
2022-12-18T22:22:43.665Z,34.60
2022-12-18T22:25:11.904Z,35.80
2022-12-18T22:27:39.366Z,37.83
2022-12-18T22:30:07.150Z,31.92
2022-12-18T22:32:35.510Z,36.65
2022-12-18T22:35:09.148Z,33.40
2022-12-18T22:37:40.139Z,45.53
2022-12-18T22:40:13.044Z,35.28
2022-12-18T22:42:42.152Z,35.67
2022-12-18T22:45:10.051Z,36.63
2022-12-18T22:47:37.806Z,40.50
2022-12-18T22:50:05.855Z,42.78
2022-12-18T22:52:33.622Z,40.17
2022-12-18T22:55:01.086Z,31.67
2022-12-18T22:57:28.454Z,38.63
2022-12-18T22:59:56.273Z,46.58
2022-12-18T23:02:23.805Z,44.47
2022-12-18T23:04:51.360Z,40.15
2022-12-18T23:07:18.970Z,46.85
2022-12-18T23:09:46.777Z,43.95
2022-12-18T23:12:19.567Z,39.38
2022-12-18T23:14:47.341Z,44.42
2022-12-18T23:17:14.559Z,40.92
2022-12-18T23:19:47.171Z,41.30
2022-12-18T23:22:16.300Z,38.53
2022-12-18T23:24:43.707Z,43.42
2022-12-18T23:27:13.709Z,40.88
2022-12-18T23:29:42.379Z,42.50
2022-12-18T23:32:10.566Z,38.78
2022-12-18T23:34:37.689Z,40.35
2022-12-18T23:37:05.541Z,44.60
2022-12-18T23:39:32.943Z,41.63
2022-12-18T23:42:00.066Z,44.70
2022-12-18T23:44:27.579Z,43.85
2022-12-18T23:46:55.476Z,41.08
2022-12-18T23:49:22.872Z,47.67
2022-12-18T23:51:50.438Z,40.80
2022-12-18T23:54:17.696Z,40.72
2022-12-18T23:56:50.460Z,41.00
2022-12-18T23:59:20.309Z,46.90
